Time,TemperatureF,DewpointF,PressureIn,WindDirection,WindDirectionDegrees,WindSpeedMPH,WindSpeedGustMPH,Humidity,HourlyPrecipIn,Conditions,Clouds,dailyrainin,SolarRadiationWatts/m^2,SoftwareType,DateUTC
2013-11-21 00:03:00,61.5,53.9,29.85,ESE,112,1.2,1.2,76,0.00,RA,,0.00,0.0,WeatherDisplay:10.37,2013-11-20 22:03:00,
2013-11-21 00:08:00,60.4,53.9,29.85,North,0,0.0,0.0,79,0.00,RA,,0.00,0.0,WeatherDisplay:10.37,2013-11-20 22:08:00,
2013-11-21 00:13:00,59.9,53.7,29.85,NW,315,2.3,2.3,80,0.00,RA,,0.00,0.0,WeatherDisplay:10.37,2013-11-20 22:13:00,
2013-11-21 00:18:00,59.9,53.7,29.85,WNW,292,1.2,0.0,80,0.00,RA,,0.00,0.0,WeatherDisplay:10.37,2013-11-20 22:18:00,
2013-11-21 00:23:00,59.9,53.7,29.85,WNW,292,1.2,0.0,80,0.00,RA,,0.00,0.0,WeatherDisplay:10.37,2013-11-20 22:23:00,
2013-11-21 00:28:00,60.6,53.4,29.85,West,270,2.3,2.3,77,0.00,RA,,0.00,0.0,WeatherDisplay:10.37,2013-11-20 22:28:00,
2013-11-21 00:33:00,61.7,52.6,29.85,West,270,6.9,6.9,72,0.00,FEW,,0.00,0.0,WeatherDisplay:10.37,2013-11-20 22:33:00,
2013-11-21 00:38:00,61.7,52.6,29.85,SSE,158,0.0,0.0,72,0.00,FEW,,0.00,0.0,WeatherDisplay:10.37,2013-11-20 22:38:00,
2013-11-21 00:43:00,61.2,52.8,29.85,SE,135,2.3,2.3,74,0.00,FEW,,0.00,0.0,WeatherDisplay:10.37,2013-11-20 22:43:00,
2013-11-21 00:48:00,61.0,53.0,29.85,North,0,0.0,0.2,75,0.00,FEW,,0.00,0.0,WeatherDisplay:10.37,2013-11-20 22:48:00,
2013-11-21 00:53:00,61.0,53.0,29.85,North,0,0.0,0.0,75,0.00,FEW,,0.00,0.0,WeatherDisplay:10.37,2013-11-20 22:53:00,
2013-11-21 00:58:00,60.6,53.0,29.85,North,0,0.0,0.0,76,0.00,FEW,,0.00,0.0,WeatherDisplay:10.37,2013-11-20 22:58:00,
2013-11-21 01:03:00,60.4,53.2,29.85,North,0,0.0,0.0,77,0.00,FEW,,0.00,0.0,WeatherDisplay:10.37,2013-11-20 23:03:00,
2013-11-21 01:08:00,60.1,53.2,29.85,NNW,338,0.0,0.0,78,0.00,FEW,,0.00,0.0,WeatherDisplay:10.37,2013-11-20 23:08:00,
2013-11-21 01:13:00,59.9,53.4,29.85,NNW,338,0.0,0.0,79,0.00,FEW,,0.00,0.0,WeatherDisplay:10.37,2013-11-20 23:13:00,
2013-11-21 01:18:00,60.1,53.5,29.85,NW,315,0.0,0.0,79,0.00,FEW,,0.00,0.0,WeatherDisplay:10.37,2013-11-20 23:18:00,
2013-11-21 01:23:00,60.1,53.2,29.85,NNW,338,0.0,0.0,78,0.00,FEW,,0.00,0.0,WeatherDisplay:10.37,2013-11-20 23:23:00,
2013-11-21 01:28:00,60.1,53.2,29.85,NW,315,0.0,0.0,78,0.00,FEW,,0.00,0.0,WeatherDisplay:10.37,2013-11-20 23:28:00,
2013-11-21 01:33:00,60.3,53.4,29.84,NNW,338,0.0,0.0,78,0.00,FEW,,0.00,0.0,WeatherDisplay:10.37,2013-11-20 23:33:00,
2013-11-21 01:38:00,60.4,53.2,29.84,NNW,338,0.0,0.0,77,0.00,FEW,,0.00,0.0,WeatherDisplay:10.37,2013-11-20 23:38:00,
2013-11-21 01:43:00,60.1,53.2,29.84,NNW,338,0.0,0.0,78,0.00,FEW,,0.00,0.0,WeatherDisplay:10.37,2013-11-20 23:43:00,
2013-11-21 01:49:00,61.0,52.6,29.84,NNW,338,0.0,0.0,74,0.00,FEW,,0.00,0.0,WeatherDisplay:10.37,2013-11-20 23:49:00,
2013-11-21 01:54:00,60.6,53.0,29.84,NNW,338,0.0,0.0,76,0.00,FEW,,0.00,0.0,WeatherDisplay:10.37,2013-11-20 23:54:00,
2013-11-21 01:59:00,59.9,53.0,29.84,NNW,338,0.0,0.0,78,0.00,FEW,,0.00,0.0,WeatherDisplay:10.37,2013-11-20 23:59:00,
2013-11-21 02:04:00,59.7,53.2,29.84,NNW,338,0.0,0.0,79,0.00,FEW,,0.00,0.0,WeatherDisplay:10.37,2013-11-21 00:04:00,
2013-11-21 02:09:00,59.7,52.8,29.84,NW,315,1.2,1.2,78,0.00,FEW,,0.00,0.0,WeatherDisplay:10.37,2013-11-21 00:09:00,
2013-11-21 02:14:00,59.7,52.8,29.84,NW,315,0.0,0.0,78,0.00,FEW,,0.00,0.0,WeatherDisplay:10.37,2013-11-21 00:14:00,
2013-11-21 02:19:00,59.7,52.8,29.84,NNW,338,0.0,0.0,78,0.00,FEW,,0.00,0.0,WeatherDisplay:10.37,2013-11-21 00:19:00,
2013-11-21 02:24:00,59.5,52.7,29.84,NNW,338,0.0,0.0,78,0.00,FEW,,0.00,0.0,WeatherDisplay:10.37,2013-11-21 00:24:00,
2013-11-21 02:29:00,59.5,53.0,29.84,NNW,338,0.0,0.0,79,0.00,FEW,,0.00,0.0,WeatherDisplay:10.37,2013-11-21 00:29:00,
2013-11-21 02:34:00,59.2,53.0,29.84,NNW,338,0.0,0.0,80,0.00,FEW,,0.00,0.0,WeatherDisplay:10.37,2013-11-21 00:34:00,
2013-11-21 02:39:00,58.8,52.7,29.84,NNW,338,0.0,0.0,80,0.00,FEW,,0.00,0.0,WeatherDisplay:10.37,2013-11-21 00:39:00,
2013-11-21 02:44:00,58.5,52.6,29.83,ESE,112,0.0,0.0,81,0.00,FEW,,0.00,0.0,WeatherDisplay:10.37,2013-11-21 00:44:00,
2013-11-21 02:49:00,57.9,52.5,29.83,NE,45,0.0,0.0,82,0.00,FEW,,0.00,0.0,WeatherDisplay:10.37,2013-11-21 00:49:00,
2013-11-21 02:54:00,57.9,52.5,29.83,NNW,338,0.0,0.0,82,0.00,FEW,,0.00,0.0,WeatherDisplay:10.37,2013-11-21 00:54:00,
2013-11-21 02:59:00,57.9,52.5,29.83,North,0,2.3,2.3,82,0.00,FEW,,0.00,0.0,WeatherDisplay:10.37,2013-11-21 00:59:00,
2013-11-21 03:04:00,57.9,52.5,29.83,NW,315,0.0,0.0,82,0.00,FEW,,0.00,0.0,WeatherDisplay:10.37,2013-11-21 01:04:00,
2013-11-21 03:09:00,57.9,52.5,29.83,East,90,3.5,3.5,82,0.00,FEW,,0.00,0.0,WeatherDisplay:10.37,2013-11-21 01:09:00,
2013-11-21 03:14:00,58.6,52.5,29.83,East,90,3.5,3.5,80,0.00,FEW,,0.00,0.0,WeatherDisplay:10.37,2013-11-21 01:14:00,
2013-11-21 03:19:00,58.5,52.3,29.83,WNW,292,0.0,0.0,80,0.00,FEW,,0.00,0.0,WeatherDisplay:10.37,2013-11-21 01:19:00,
2013-11-21 03:24:00,58.8,52.3,29.83,WNW,292,0.0,0.0,79,0.00,FEW,,0.00,0.0,WeatherDisplay:10.37,2013-11-21 01:24:00,
2013-11-21 03:29:00,59.2,52.7,29.84,WNW,292,1.3,0.0,79,0.00,FEW,,0.00,0.0,WeatherDisplay:10.37,2013-11-21 01:29:00,
2013-11-21 03:34:00,59.2,52.7,29.83,NW,315,0.0,0.0,79,0.00,FEW,,0.00,0.0,WeatherDisplay:10.37,2013-11-21 01:34:00,
2013-11-21 03:39:00,60.6,52.6,29.83,West,270,0.0,0.2,75,0.00,FEW,,0.00,0.0,WeatherDisplay:10.37,2013-11-21 01:39:00,
2013-11-21 03:44:00,61.0,52.6,29.83,West,270,0.0,0.0,74,0.00,FEW,,0.00,0.0,WeatherDisplay:10.37,2013-11-21 01:44:00,
2013-11-21 03:49:00,61.0,52.3,29.83,West,270,2.3,2.3,73,0.00,FEW,,0.00,0.0,WeatherDisplay:10.37,2013-11-21 01:49:00,
2013-11-21 03:54:00,61.0,52.6,29.83,WSW,248,1.2,0.0,74,0.00,FEW,,0.00,0.0,WeatherDisplay:10.37,2013-11-21 01:54:00,
2013-11-21 03:59:00,61.0,52.3,29.83,SW,225,4.6,4.6,73,0.00,FEW,,0.00,0.0,WeatherDisplay:10.37,2013-11-21 01:59:00,
2013-11-21 04:04:00,61.0,52.3,29.83,SSW,202,1.2,1.2,73,0.00,FEW,,0.00,0.0,WeatherDisplay:10.37,2013-11-21 02:04:00,
2013-11-21 04:09:00,59.2,52.0,29.83,ENE,68,0.0,0.0,77,0.00,FEW,,0.00,0.0,WeatherDisplay:10.37,2013-11-21 02:09:00,
2013-11-21 04:14:00,58.1,52.0,29.83,ENE,68,0.0,0.0,80,0.00,FEW,,0.00,0.0,WeatherDisplay:10.37,2013-11-21 02:14:00,
2013-11-21 04:19:00,58.1,52.0,29.83,ENE,68,0.0,0.0,80,0.00,FEW,,0.00,0.0,WeatherDisplay:10.37,2013-11-21 02:19:00,
2013-11-21 04:24:00,59.2,52.0,29.83,West,270,0.0,0.0,77,0.00,FEW,,0.00,0.0,WeatherDisplay:10.37,2013-11-21 02:24:00,
2013-11-21 04:29:00,59.7,51.8,29.83,West,270,0.0,0.0,75,0.00,FEW,,0.00,0.0,WeatherDisplay:10.37,2013-11-21 02:29:00,
2013-11-21 04:34:00,59.2,52.3,29.83,NW,315,0.0,0.0,78,0.00,FEW,,0.00,0.0,WeatherDisplay:10.37,2013-11-21 02:34:00,
2013-11-21 04:39:00,57.6,51.8,29.83,North,0,0.0,0.0,81,0.00,FEW,,0.00,0.0,WeatherDisplay:10.37,2013-11-21 02:39:00,
2013-11-21 04:44:00,57.4,51.9,29.83,North,0,0.0,0.0,82,0.00,FEW,,0.00,0.0,WeatherDisplay:10.37,2013-11-21 02:44:00,
2013-11-21 04:49:00,57.7,51.9,29.83,North,0,2.3,0.0,81,0.00,FEW,,0.00,0.0,WeatherDisplay:10.37,2013-11-21 02:49:00,
2013-11-21 04:54:00,58.8,52.0,29.82,West,270,0.0,0.0,78,0.00,FEW,,0.00,0.0,WeatherDisplay:10.37,2013-11-21 02:54:00,
2013-11-21 04:59:00,57.9,51.4,29.82,East,90,1.2,0.0,79,0.00,FEW,,0.00,0.0,WeatherDisplay:10.37,2013-11-21 02:59:00,
2013-11-21 05:04:00,57.4,51.6,29.83,NW,315,0.0,0.0,81,0.00,FEW,,0.00,0.0,WeatherDisplay:10.37,2013-11-21 03:04:00,
2013-11-21 05:09:00,58.3,52.1,29.83,WSW,248,3.5,3.5,80,0.00,FEW,,0.00,0.0,WeatherDisplay:10.37,2013-11-21 03:09:00,
2013-11-21 05:14:00,58.8,51.6,29.83,WNW,292,2.3,2.3,77,0.00,FEW,,0.00,0.0,WeatherDisplay:10.37,2013-11-21 03:14:00,
2013-11-21 05:19:00,59.4,51.4,29.82,West,270,3.5,3.5,75,0.00,FEW,,0.00,0.0,WeatherDisplay:10.37,2013-11-21 03:19:00,
2013-11-21 05:24:00,59.9,51.2,29.82,West,270,0.0,0.0,73,0.00,FEW,,0.00,0.0,WeatherDisplay:10.37,2013-11-21 03:24:00,
2013-11-21 05:29:00,58.8,50.9,29.83,NE,45,2.3,2.3,75,0.00,FEW,,0.00,0.0,WeatherDisplay:10.37,2013-11-21 03:29:00,
2013-11-21 05:34:00,57.6,51.1,29.82,NE,45,2.0,2.0,79,0.00,FEW,,0.00,0.0,WeatherDisplay:10.37,2013-11-21 03:34:00,
2013-11-21 05:39:00,57.4,50.9,29.82,NNW,338,2.2,2.2,79,0.00,FEW,,0.00,0.0,WeatherDisplay:10.37,2013-11-21 03:39:00,
2013-11-21 05:44:00,57.0,50.9,29.83,NE,45,1.2,0.0,80,0.00,FEW,,0.00,0.0,WeatherDisplay:10.37,2013-11-21 03:44:00,
2013-11-21 05:49:00,56.8,50.7,29.83,North,0,1.1,1.1,80,0.00,FEW,,0.00,0.0,WeatherDisplay:10.37,2013-11-21 03:49:00,
2013-11-21 05:54:00,57.0,50.9,29.82,NNW,338,2.3,2.3,80,0.00,FEW,,0.00,0.0,WeatherDisplay:10.37,2013-11-21 03:54:00,
2013-11-21 05:59:00,57.7,51.3,29.83,NNW,338,3.5,3.5,79,0.00,FEW,,0.00,0.0,WeatherDisplay:10.37,2013-11-21 03:59:00,
2013-11-21 06:04:00,58.3,51.1,29.83,NNW,338,3.5,3.5,77,0.00,FEW,,0.00,0.0,WeatherDisplay:10.37,2013-11-21 04:04:00,
2013-11-21 06:09:00,58.3,50.7,29.83,North,0,2.2,2.2,76,0.00,FEW,,0.00,0.0,WeatherDisplay:10.37,2013-11-21 04:09:00,
2013-11-21 06:14:00,58.6,51.1,29.83,North,0,2.7,2.7,76,0.00,FEW,,0.00,0.0,WeatherDisplay:10.37,2013-11-21 04:14:00,
2013-11-21 06:19:00,58.5,50.6,29.83,North,0,2.3,2.3,75,0.00,FEW,,0.00,0.0,WeatherDisplay:10.37,2013-11-21 04:19:00,
2013-11-21 06:24:00,57.9,50.8,29.83,NNE,22,0.0,0.0,77,0.00,FEW,,0.00,0.0,WeatherDisplay:10.37,2013-11-21 04:24:00,
2013-11-21 06:29:00,57.6,50.8,29.83,NE,45,0.0,0.0,78,0.00,FEW,,0.00,0.0,WeatherDisplay:10.37,2013-11-21 04:29:00,
2013-11-21 06:34:00,57.0,50.2,29.83,NE,45,2.3,2.3,78,0.00,FEW,,0.00,0.0,WeatherDisplay:10.37,2013-11-21 04:34:00,
2013-11-21 06:39:00,56.5,50.4,29.84,NNW,338,2.3,2.3,80,0.00,FEW,,0.00,0.0,WeatherDisplay:10.37,2013-11-21 04:39:00,
2013-11-21 06:44:00,56.5,50.4,29.84,SE,135,0.0,0.0,80,0.00,FEW,,0.00,0.0,WeatherDisplay:10.37,2013-11-21 04:44:00,
2013-11-21 06:49:00,56.1,50.4,29.83,NNE,22,0.0,0.0,81,0.00,FEW,,0.00,0.0,WeatherDisplay:10.37,2013-11-21 04:49:00,
2013-11-21 06:54:00,56.3,50.9,29.84,NE,45,0.0,0.0,82,0.00,FEW,,0.00,0.0,WeatherDisplay:10.37,2013-11-21 04:54:00,
2013-11-21 06:59:00,56.1,50.7,29.84,ENE,68,2.3,2.3,82,0.00,FEW,,0.00,0.0,WeatherDisplay:10.37,2013-11-21 04:59:00,
2013-11-21 07:01:00,56.1,50.7,29.84,NW,315,2.3,0.0,82,0.00,FEW,,0.00,0.0,WeatherDisplay:10.37,2013-11-21 05:01:00,
2013-11-21 07:02:00,56.1,50.7,29.84,NW,315,0.0,0.0,82,0.00,FEW,,0.00,0.0,WeatherDisplay:10.37,2013-11-21 05:02:00,
2013-11-21 07:07:00,56.1,50.7,29.84,NE,45,0.0,0.0,82,0.00,FEW,,0.00,0.0,WeatherDisplay:10.37,2013-11-21 05:07:00,
2013-11-21 07:12:00,56.1,50.7,29.84,SE,135,0.0,0.0,82,0.00,FEW,,0.00,0.0,WeatherDisplay:10.37,2013-11-21 05:12:00,
2013-11-21 07:17:00,55.8,50.3,29.84,North,0,1.2,1.2,82,0.00,FEW,,0.00,0.0,WeatherDisplay:10.37,2013-11-21 05:17:00,
2013-11-21 07:22:00,55.4,50.0,29.84,NE,45,0.0,0.0,82,0.00,FEW,,0.00,0.0,WeatherDisplay:10.37,2013-11-21 05:22:00,
2013-11-21 07:27:00,55.2,50.1,29.83,North,0,2.3,2.3,83,0.00,FEW,,0.00,0.0,WeatherDisplay:10.37,2013-11-21 05:27:00,
2013-11-21 07:32:00,55.2,50.1,29.83,North,0,1.3,1.3,83,0.00,SCT,,0.00,0.0,WeatherDisplay:10.37,2013-11-21 05:32:00,
2013-11-21 07:37:00,55.2,50.1,29.84,NNW,338,1.2,1.2,83,0.00,SCT,,0.00,0.0,WeatherDisplay:10.37,2013-11-21 05:37:00,
2013-11-21 07:42:00,55.4,50.3,29.84,North,0,2.3,2.3,83,0.00,SCT,,0.00,0.0,WeatherDisplay:10.37,2013-11-21 05:42:00,
2013-11-21 07:47:00,55.6,50.5,29.84,ENE,68,2.3,2.3,83,0.00,SCT,,0.00,0.0,WeatherDisplay:10.37,2013-11-21 05:47:00,
2013-11-21 07:52:00,55.4,50.3,29.84,East,90,0.0,0.0,83,0.00,SCT,,0.00,0.0,WeatherDisplay:10.37,2013-11-21 05:52:00,
2013-11-21 07:57:00,55.2,50.1,29.84,NE,45,2.3,2.3,83,0.00,SCT,,0.00,0.0,WeatherDisplay:10.37,2013-11-21 05:57:00,
2013-11-21 07:58:00,55.2,50.1,29.84,NNE,22,2.3,2.3,83,0.00,SCT,,0.00,0.0,WeatherDisplay:10.37,2013-11-21 05:58:00,
2013-11-21 08:03:00,55.2,50.1,29.83,North,0,1.2,1.2,83,0.00,BKN,,0.00,0.0,WeatherDisplay:10.37,2013-11-21 06:03:00,
2013-11-21 08:08:00,55.6,50.2,29.84,North,0,2.3,2.3,82,0.00,BKN,,0.00,0.0,WeatherDisplay:10.37,2013-11-21 06:08:00,
2013-11-21 08:13:00,55.9,50.5,29.84,NNE,22,0.0,0.0,82,0.00,BKN,,0.00,0.6,WeatherDisplay:10.37,2013-11-21 06:13:00,
2013-11-21 08:18:00,56.1,50.7,29.84,North,0,1.2,1.2,82,0.00,BKN,,0.00,1.0,WeatherDisplay:10.37,2013-11-21 06:18:00,
2013-11-21 08:23:00,56.5,50.7,29.84,North,0,2.3,2.3,81,0.00,BKN,,0.00,2.0,WeatherDisplay:10.37,2013-11-21 06:23:00,
2013-11-21 08:28:00,57.0,50.9,29.84,North,0,0.0,0.0,80,0.00,BKN,,0.00,3.3,WeatherDisplay:10.37,2013-11-21 06:28:00,
2013-11-21 08:33:00,57.7,51.3,29.84,North,0,3.5,3.5,79,0.00,BKN,,0.00,5.2,WeatherDisplay:10.37,2013-11-21 06:33:00,
2013-11-21 08:38:00,58.3,51.1,29.84,North,0,1.2,1.2,77,0.00,BKN,,0.00,9.0,WeatherDisplay:10.37,2013-11-21 06:38:00,
2013-11-21 08:43:00,58.8,51.6,29.84,North,0,0.0,0.0,77,0.00,BKN,,0.00,16.0,WeatherDisplay:10.37,2013-11-21 06:43:00,
2013-11-21 08:48:00,59.5,51.6,29.84,NNE,22,1.2,1.2,75,0.00,BKN,,0.00,11.5,WeatherDisplay:10.37,2013-11-21 06:48:00,
2013-11-21 08:53:00,59.7,51.4,29.84,North,0,0.0,0.0,74,0.00,BKN,,0.00,11.0,WeatherDisplay:10.37,2013-11-21 06:53:00,
2013-11-21 08:58:00,60.1,51.8,29.84,North,0,0.0,0.0,74,0.00,BKN,,0.00,13.3,WeatherDisplay:10.37,2013-11-21 06:58:00,
2013-11-21 09:03:00,60.4,51.7,29.85,North,0,0.0,0.0,73,0.00,BKN,,0.00,24.2,WeatherDisplay:10.37,2013-11-21 07:03:00,
2013-11-21 09:08:00,60.6,52.3,29.85,NNE,22,0.0,0.0,74,0.00,BKN,,0.00,23.8,WeatherDisplay:10.37,2013-11-21 07:08:00,
2013-11-21 09:13:00,61.0,52.3,29.85,North,0,2.3,2.3,73,0.00,BKN,,0.00,30.5,WeatherDisplay:10.37,2013-11-21 07:13:00,
2013-11-21 09:18:00,61.2,52.4,29.85,North,0,0.0,0.0,73,0.00,BKN,,0.00,29.6,WeatherDisplay:10.37,2013-11-21 07:18:00,
2013-11-21 09:23:00,61.3,52.6,29.84,ENE,68,0.0,0.0,73,0.00,BKN,,0.00,60.2,WeatherDisplay:10.37,2013-11-21 07:23:00,
2013-11-21 09:28:00,61.5,52.8,29.84,NE,45,1.2,1.2,73,0.00,BKN,,0.00,59.7,WeatherDisplay:10.37,2013-11-21 07:28:00,
2013-11-21 09:33:00,61.7,52.6,29.84,NNE,22,1.2,1.2,72,0.00,BKN,,0.00,60.9,WeatherDisplay:10.37,2013-11-21 07:33:00,
2013-11-21 09:38:00,61.9,52.8,29.84,ENE,68,0.0,0.0,72,0.00,BKN,,0.00,95.6,WeatherDisplay:10.37,2013-11-21 07:38:00,
2013-11-21 09:43:00,62.4,53.3,29.83,ENE,68,0.0,0.0,72,0.00,BKN,,0.00,132.5,WeatherDisplay:10.37,2013-11-21 07:43:00,
2013-11-21 09:48:00,63.0,53.4,29.84,ENE,68,1.2,1.2,71,0.00,BKN,,0.00,118.5,WeatherDisplay:10.37,2013-11-21 07:48:00,
2013-11-21 09:53:00,63.3,53.4,29.84,ENE,68,0.0,0.0,70,0.00,BKN,,0.00,152.8,WeatherDisplay:10.37,2013-11-21 07:53:00,
2013-11-21 09:58:00,64.2,53.8,29.83,ENE,68,0.0,0.0,69,0.00,BKN,,0.00,135.5,WeatherDisplay:10.37,2013-11-21 07:58:00,
2013-11-21 10:03:00,64.6,54.2,29.83,ENE,68,0.0,0.0,69,0.00,BKN,,0.00,131.2,WeatherDisplay:10.37,2013-11-21 08:03:00,
2013-11-21 10:08:00,64.6,53.8,29.83,NE,45,0.0,0.0,68,0.00,BKN,,0.00,131.1,WeatherDisplay:10.37,2013-11-21 08:08:00,
2013-11-21 10:13:00,64.6,53.8,29.83,NNE,22,0.0,0.0,68,0.00,BKN,,0.00,153.1,WeatherDisplay:10.37,2013-11-21 08:13:00,
2013-11-21 10:18:00,64.6,53.8,29.83,ENE,68,0.0,0.0,68,0.00,BKN,,0.00,195.5,WeatherDisplay:10.37,2013-11-21 08:18:00,
2013-11-21 10:23:00,64.9,53.7,29.82,ENE,68,0.0,0.0,67,0.00,BKN,,0.00,200.9,WeatherDisplay:10.37,2013-11-21 08:23:00,
2013-11-21 10:28:00,65.5,53.8,29.82,ENE,68,0.0,0.0,66,0.00,BKN,,0.00,232.6,WeatherDisplay:10.37,2013-11-21 08:28:00,
2013-11-21 10:33:00,66.0,54.3,29.82,SE,135,0.0,0.0,66,0.00,BKN,,0.00,240.5,WeatherDisplay:10.37,2013-11-21 08:33:00,
2013-11-21 10:38:00,66.4,53.8,29.82,SSW,202,1.2,1.2,64,0.00,BKN,,0.00,296.3,WeatherDisplay:10.37,2013-11-21 08:38:00,
2013-11-21 10:43:00,66.9,54.3,29.82,SW,225,2.3,2.3,64,0.00,BKN,,0.00,353.2,WeatherDisplay:10.37,2013-11-21 08:43:00,
2013-11-21 10:48:00,67.3,54.3,29.82,WSW,248,4.6,4.6,63,0.00,BKN,,0.00,250.0,WeatherDisplay:10.37,2013-11-21 08:48:00,
2013-11-21 10:53:00,67.6,54.2,29.82,South,180,2.3,2.3,62,0.00,BKN,,0.00,215.1,WeatherDisplay:10.37,2013-11-21 08:53:00,
2013-11-21 10:58:00,67.3,54.3,29.82,SE,135,5.8,5.8,63,0.00,BKN,,0.00,359.1,WeatherDisplay:10.37,2013-11-21 08:58:00,
2013-11-21 11:03:00,67.3,53.8,29.82,WSW,248,2.3,2.3,62,0.00,BKN,,0.00,292.7,WeatherDisplay:10.37,2013-11-21 09:03:00,
2013-11-21 11:08:00,68.2,54.7,29.82,South,180,3.8,3.8,62,0.00,BKN,,0.00,187.4,WeatherDisplay:10.37,2013-11-21 09:08:00,
2013-11-21 11:13:00,68.2,54.2,29.81,SSW,202,2.3,2.3,61,0.00,BKN,,0.00,454.0,WeatherDisplay:10.37,2013-11-21 09:13:00,
2013-11-21 11:18:00,67.6,52.8,29.81,ESE,112,3.5,3.5,59,0.00,BKN,,0.00,352.2,WeatherDisplay:10.37,2013-11-21 09:18:00,
2013-11-21 11:23:00,67.8,53.4,29.81,South,180,6.9,6.9,60,0.00,BKN,,0.00,415.8,WeatherDisplay:10.37,2013-11-21 09:23:00,
2013-11-21 11:28:00,68.0,53.6,29.80,South,180,6.0,6.0,60,0.00,BKN,,0.00,411.6,WeatherDisplay:10.37,2013-11-21 09:28:00,
2013-11-21 11:33:00,67.6,53.7,29.80,ESE,112,3.4,3.4,61,0.00,BKN,,0.00,410.0,WeatherDisplay:10.37,2013-11-21 09:33:00,
2013-11-21 11:38:00,68.0,53.6,29.81,SW,225,6.9,6.9,60,0.00,BKN,,0.00,337.0,WeatherDisplay:10.37,2013-11-21 09:38:00,
2013-11-21 11:43:00,67.6,53.7,29.80,South,180,4.6,4.6,61,0.00,BKN,,0.00,371.9,WeatherDisplay:10.37,2013-11-21 09:43:00,
2013-11-21 11:48:00,67.3,53.4,29.80,SW,225,3.5,3.5,61,0.00,BKN,,0.00,441.4,WeatherDisplay:10.37,2013-11-21 09:48:00,
2013-11-21 11:53:00,68.2,54.2,29.80,SSW,202,2.3,2.3,61,0.00,BKN,,0.00,358.1,WeatherDisplay:10.37,2013-11-21 09:53:00,
2013-11-21 11:58:00,68.0,53.6,29.79,SSW,202,3.5,3.5,60,0.00,BKN,,0.00,348.6,WeatherDisplay:10.37,2013-11-21 09:58:00,
2013-11-21 12:03:00,68.2,53.3,29.79,South,180,5.8,5.8,59,0.00,BKN,,0.00,397.0,WeatherDisplay:10.37,2013-11-21 10:03:00,
2013-11-21 12:08:00,68.5,53.2,29.79,SSW,202,4.6,4.6,58,0.00,BKN,,0.00,353.8,WeatherDisplay:10.37,2013-11-21 10:08:00,
2013-11-21 12:13:00,68.2,53.3,29.79,SW,225,6.0,6.0,59,0.00,BKN,,0.00,213.9,WeatherDisplay:10.37,2013-11-21 10:13:00,
2013-11-21 12:18:00,67.8,53.4,29.79,South,180,8.0,8.0,60,0.00,BKN,,0.00,256.1,WeatherDisplay:10.37,2013-11-21 10:18:00,
2013-11-21 12:23:00,67.8,53.9,29.79,South,180,9.2,9.2,61,0.00,BKN,,0.00,252.4,WeatherDisplay:10.37,2013-11-21 10:23:00,
2013-11-21 12:28:00,67.6,53.7,29.78,SSW,202,6.9,6.9,61,0.00,BKN,,0.00,202.2,WeatherDisplay:10.37,2013-11-21 10:28:00,
2013-11-21 12:33:00,67.6,53.3,29.78,South,180,5.8,5.8,60,0.00,BKN,,0.00,205.3,WeatherDisplay:10.37,2013-11-21 10:33:00,
2013-11-21 12:38:00,67.6,53.3,29.79,South,180,8.1,8.1,60,0.00,BKN,,0.00,210.4,WeatherDisplay:10.37,2013-11-21 10:38:00,
2013-11-21 12:43:00,67.6,52.8,29.78,South,180,6.9,6.9,59,0.00,BKN,,0.00,164.2,WeatherDisplay:10.37,2013-11-21 10:43:00,
2013-11-21 12:48:00,67.6,51.9,29.78,SSW,202,8.1,8.1,57,0.00,BKN,,0.00,163.6,WeatherDisplay:10.37,2013-11-21 10:48:00,
2013-11-21 12:53:00,67.5,51.7,29.77,WSW,248,6.9,6.9,57,0.00,BKN,,0.00,151.3,WeatherDisplay:10.37,2013-11-21 10:53:00,
2013-11-21 12:58:00,67.3,52.0,29.77,SSW,202,4.6,4.6,58,0.00,BKN,,0.00,120.8,WeatherDisplay:10.37,2013-11-21 10:58:00,
2013-11-21 13:03:00,67.3,52.5,29.76,South,180,9.2,9.2,59,0.00,BKN,,0.00,111.0,WeatherDisplay:10.37,2013-11-21 11:03:00,
2013-11-21 13:08:00,66.9,52.1,29.76,WSW,248,11.6,11.6,59,0.00,BKN,,0.00,112.1,WeatherDisplay:10.37,2013-11-21 11:08:00,
2013-11-21 13:13:00,66.9,53.0,29.76,South,180,5.8,5.8,61,0.00,BKN,,0.00,143.2,WeatherDisplay:10.37,2013-11-21 11:13:00,
2013-11-21 13:18:00,66.9,53.5,29.76,SW,225,10.4,10.4,62,0.00,BKN,,0.00,169.3,WeatherDisplay:10.37,2013-11-21 11:18:00,
2013-11-21 13:23:00,66.9,53.9,29.75,SSW,202,10.4,10.4,63,0.00,BKN,,0.00,216.6,WeatherDisplay:10.37,2013-11-21 11:23:00,
2013-11-21 13:28:00,67.1,53.6,29.76,SSW,202,15.0,15.0,62,0.00,BKN,,0.00,183.9,WeatherDisplay:10.37,2013-11-21 11:28:00,
2013-11-21 13:33:00,67.1,53.6,29.76,SSW,202,10.4,10.4,62,0.00,BKN,,0.00,147.4,WeatherDisplay:10.37,2013-11-21 11:33:00,
2013-11-21 13:38:00,67.1,53.6,29.76,South,180,11.5,11.5,62,0.00,BKN,,0.00,134.1,WeatherDisplay:10.37,2013-11-21 11:38:00,
2013-11-21 13:43:00,66.9,53.5,29.75,South,180,8.1,8.1,62,0.00,BKN,,0.00,136.0,WeatherDisplay:10.37,2013-11-21 11:43:00,
2013-11-21 13:48:00,66.9,53.5,29.75,South,180,11.5,11.5,62,0.00,BKN,,0.00,117.4,WeatherDisplay:10.37,2013-11-21 11:48:00,
2013-11-21 13:53:00,66.9,53.5,29.75,SSW,202,12.1,12.1,62,0.00,BKN,,0.00,106.9,WeatherDisplay:10.37,2013-11-21 11:53:00,
2013-11-21 13:58:00,66.9,53.5,29.75,South,180,4.6,4.6,62,0.00,BKN,,0.00,110.0,WeatherDisplay:10.37,2013-11-21 11:58:00,
2013-11-21 14:03:00,66.9,53.0,29.75,SSW,202,9.2,9.2,61,0.00,BKN,,0.00,124.6,WeatherDisplay:10.37,2013-11-21 12:03:00,
2013-11-21 14:08:00,66.9,53.5,29.74,South,180,9.2,9.2,62,0.00,BKN,,0.00,111.6,WeatherDisplay:10.37,2013-11-21 12:08:00,
2013-11-21 14:13:00,66.9,53.5,29.75,South,180,3.5,3.5,62,0.00,BKN,,0.00,108.0,WeatherDisplay:10.37,2013-11-21 12:13:00,
2013-11-21 14:18:00,66.9,53.5,29.74,SW,225,3.5,3.5,62,0.00,BKN,,0.00,113.1,WeatherDisplay:10.37,2013-11-21 12:18:00,
2013-11-21 14:23:00,66.9,53.5,29.74,South,180,4.6,4.6,62,0.00,BKN,,0.00,101.2,WeatherDisplay:10.37,2013-11-21 12:23:00,
2013-11-21 14:28:00,66.9,53.9,29.73,SSW,202,3.5,3.5,63,0.00,BKN,,0.00,91.1,WeatherDisplay:10.37,2013-11-21 12:28:00,
2013-11-21 14:33:00,66.9,54.3,29.73,South,180,3.5,3.5,64,0.00,BKN,,0.00,100.8,WeatherDisplay:10.37,2013-11-21 12:33:00,
2013-11-21 14:38:00,66.9,54.3,29.73,South,180,9.2,9.2,64,0.00,BKN,,0.00,106.6,WeatherDisplay:10.37,2013-11-21 12:38:00,
2013-11-21 14:43:00,66.7,54.2,29.73,SSW,202,9.2,9.2,64,0.00,BKN,,0.00,79.9,WeatherDisplay:10.37,2013-11-21 12:43:00,
2013-11-21 14:48:00,66.7,54.6,29.73,SSW,202,10.4,10.4,65,0.00,BKN,,0.00,69.8,WeatherDisplay:10.37,2013-11-21 12:48:00,
2013-11-21 14:53:00,66.7,54.6,29.72,South,180,6.9,6.9,65,0.00,BKN,,0.00,65.2,WeatherDisplay:10.37,2013-11-21 12:53:00,
2013-11-21 14:58:00,66.7,54.6,29.73,South,180,6.9,6.9,65,0.00,BKN,,0.00,52.8,WeatherDisplay:10.37,2013-11-21 12:58:00,
2013-11-21 15:03:00,66.7,54.6,29.73,South,180,8.1,8.1,65,0.00,BKN,,0.00,46.2,WeatherDisplay:10.37,2013-11-21 13:03:00,
2013-11-21 15:08:00,66.6,54.0,29.73,SW,225,9.2,9.2,64,0.00,BKN,,0.00,34.2,WeatherDisplay:10.37,2013-11-21 13:08:00,
2013-11-21 15:13:00,66.6,54.4,29.73,SW,225,9.8,9.8,65,0.00,BKN,,0.00,24.0,WeatherDisplay:10.37,2013-11-21 13:13:00,
2013-11-21 15:18:00,66.4,53.8,29.73,South,180,9.2,9.2,64,0.00,BKN,,0.00,24.6,WeatherDisplay:10.37,2013-11-21 13:18:00,
2013-11-21 15:23:00,66.4,53.8,29.73,SSW,202,10.4,10.4,64,0.00,BKN,,0.00,24.0,WeatherDisplay:10.37,2013-11-21 13:23:00,
2013-11-21 15:28:00,66.4,53.8,29.74,SW,225,8.1,8.1,64,0.00,BKN,,0.00,23.3,WeatherDisplay:10.37,2013-11-21 13:28:00,
2013-11-21 15:33:00,66.2,53.7,29.73,South,180,9.2,9.2,64,0.00,BKN,,0.00,27.2,WeatherDisplay:10.37,2013-11-21 13:33:00,
2013-11-21 15:38:00,66.2,53.7,29.73,SSW,202,6.9,6.9,64,0.00,BKN,,0.00,18.9,WeatherDisplay:10.37,2013-11-21 13:38:00,
2013-11-21 15:43:00,66.0,53.5,29.73,SW,225,5.6,5.6,64,0.00,BKN,,0.00,11.5,WeatherDisplay:10.37,2013-11-21 13:43:00,
2013-11-21 15:48:00,66.2,53.7,29.74,South,180,4.6,4.6,64,0.00,BKN,,0.00,8.3,WeatherDisplay:10.37,2013-11-21 13:48:00,
2013-11-21 15:53:00,66.0,53.5,29.74,WSW,248,3.5,3.5,64,0.00,BKN,,0.00,8.0,WeatherDisplay:10.37,2013-11-21 13:53:00,
2013-11-21 15:58:00,66.0,53.9,29.74,SW,225,10.4,10.4,65,0.00,BKN,,0.00,6.4,WeatherDisplay:10.37,2013-11-21 13:58:00,
2013-11-21 16:03:00,66.0,54.3,29.74,South,180,8.1,8.1,66,0.00,BKN,,0.00,6.2,WeatherDisplay:10.37,2013-11-21 14:03:00,
2013-11-21 16:08:00,65.8,53.7,29.73,SSW,202,4.6,4.6,65,0.00,BKN,,0.00,5.0,WeatherDisplay:10.37,2013-11-21 14:08:00,
2013-11-21 16:13:00,66.0,53.5,29.74,South,180,10.4,10.4,64,0.00,BKN,,0.00,4.2,WeatherDisplay:10.37,2013-11-21 14:13:00,
2013-11-21 16:18:00,66.0,53.5,29.73,SSW,202,5.8,5.8,64,0.00,BKN,,0.00,4.0,WeatherDisplay:10.37,2013-11-21 14:18:00,
2013-11-21 16:23:00,66.0,53.5,29.73,SW,225,9.2,9.2,64,0.00,BKN,,0.00,5.7,WeatherDisplay:10.37,2013-11-21 14:23:00,
2013-11-21 16:28:00,66.0,53.1,29.73,SW,225,11.5,11.5,63,0.00,BKN,,0.00,5.4,WeatherDisplay:10.37,2013-11-21 14:28:00,
2013-11-21 16:33:00,66.0,53.1,29.73,SSW,202,8.1,8.1,63,0.00,BKN,,0.00,3.9,WeatherDisplay:10.37,2013-11-21 14:33:00,
2013-11-21 16:38:00,65.8,52.9,29.73,SW,225,5.8,5.8,63,0.00,BKN,,0.00,3.3,WeatherDisplay:10.37,2013-11-21 14:38:00,
2013-11-21 16:43:00,65.8,52.5,29.73,SSW,202,6.7,6.7,62,0.00,BKN,,0.00,2.4,WeatherDisplay:10.37,2013-11-21 14:43:00,
2013-11-21 16:48:00,65.8,52.9,29.73,SSW,202,6.9,6.9,63,0.00,BKN,,0.00,2.3,WeatherDisplay:10.37,2013-11-21 14:48:00,
2013-11-21 16:53:00,65.8,52.9,29.74,South,180,4.0,4.0,63,0.00,BKN,,0.00,1.8,WeatherDisplay:10.37,2013-11-21 14:53:00,
2013-11-21 16:58:00,65.5,52.5,29.73,SSW,202,5.8,5.8,63,0.00,BKN,,0.00,0.8,WeatherDisplay:10.37,2013-11-21 14:58:00,
2013-11-21 17:03:00,65.3,52.8,29.73,SW,225,3.1,3.1,64,0.00,BKN,,0.00,0.8,WeatherDisplay:10.37,2013-11-21 15:03:00,
2013-11-21 17:08:00,65.3,52.8,29.73,South,180,1.2,1.2,64,0.00,BKN,,0.00,0.3,WeatherDisplay:10.37,2013-11-21 15:08:00,
2013-11-21 17:13:00,65.3,53.2,29.73,SSW,202,2.3,2.3,65,0.00,BKN,,0.00,0.3,WeatherDisplay:10.37,2013-11-21 15:13:00,
2013-11-21 17:18:00,65.3,53.2,29.73,South,180,5.8,5.8,65,0.00,BKN,,0.00,0.0,WeatherDisplay:10.37,2013-11-21 15:18:00,
2013-11-21 17:23:00,65.3,53.6,29.72,SSW,202,5.8,5.8,66,0.00,BKN,,0.00,0.0,WeatherDisplay:10.37,2013-11-21 15:23:00,
2013-11-21 17:28:00,65.1,53.5,29.72,SW,225,8.1,8.1,66,0.00,BKN,,0.00,0.0,WeatherDisplay:10.37,2013-11-21 15:28:00,
2013-11-21 17:33:00,65.3,53.2,29.73,South,180,14.7,14.7,65,0.00,BKN,,0.00,0.0,WeatherDisplay:10.37,2013-11-21 15:33:00,
2013-11-21 17:38:00,65.3,55.7,29.73,SSW,202,9.2,9.2,71,0.00,BKN,,0.00,0.0,WeatherDisplay:10.37,2013-11-21 15:38:00,
2013-11-21 17:43:00,64.9,56.8,29.73,SSW,202,10.4,10.4,75,0.00,BKN,,0.00,0.0,WeatherDisplay:10.37,2013-11-21 15:43:00,
2013-11-21 17:48:00,64.6,57.2,29.73,South,180,5.8,5.8,77,0.00,BKN,,0.00,0.0,WeatherDisplay:10.37,2013-11-21 15:48:00,
2013-11-21 17:53:00,64.2,57.6,29.73,South,180,6.9,6.9,79,0.00,BKN,,0.00,0.0,WeatherDisplay:10.37,2013-11-21 15:53:00,
2013-11-21 17:58:00,64.2,57.2,29.72,WSW,248,13.8,13.8,78,0.00,BKN,,0.00,0.0,WeatherDisplay:10.37,2013-11-21 15:58:00,
2013-11-21 18:03:00,64.2,57.2,29.72,SSW,202,9.2,9.2,78,0.00,BKN,,0.00,0.0,WeatherDisplay:10.37,2013-11-21 16:03:00,
2013-11-21 18:09:00,64.0,56.7,29.72,SSE,158,13.8,13.8,77,0.00,BKN,,0.00,0.0,WeatherDisplay:10.37,2013-11-21 16:09:00,
2013-11-21 18:14:00,64.0,56.3,29.72,SSE,158,10.5,10.5,76,0.00,BKN,,0.00,0.0,WeatherDisplay:10.37,2013-11-21 16:14:00,
2013-11-21 18:19:00,64.0,56.3,29.73,SE,135,11.4,11.4,76,0.00,BKN,,0.00,0.0,WeatherDisplay:10.37,2013-11-21 16:19:00,
2013-11-21 18:24:00,64.0,56.3,29.73,South,180,11.5,11.5,76,0.00,BKN,,0.00,0.0,WeatherDisplay:10.37,2013-11-21 16:24:00,
2013-11-21 18:29:00,64.0,56.7,29.73,South,180,12.7,12.7,77,0.00,BKN,,0.00,0.0,WeatherDisplay:10.37,2013-11-21 16:29:00,
2013-11-21 18:34:00,63.7,56.7,29.73,SE,135,13.8,13.8,78,0.00,BKN,,0.00,0.0,WeatherDisplay:10.37,2013-11-21 16:34:00,
2013-11-21 18:39:00,63.7,56.7,29.73,SSW,202,15.0,15.0,78,0.00,BKN,,0.00,0.0,WeatherDisplay:10.37,2013-11-21 16:39:00,
2013-11-21 18:44:00,63.7,56.7,29.73,SSW,202,8.1,8.1,78,0.00,BKN,,0.00,0.0,WeatherDisplay:10.37,2013-11-21 16:44:00,
2013-11-21 18:49:00,63.5,56.5,29.74,SSW,202,12.7,12.7,78,0.00,BKN,,0.00,0.0,WeatherDisplay:10.37,2013-11-21 16:49:00,
2013-11-21 18:54:00,63.3,56.7,29.74,South,180,15.0,15.0,79,0.00,BKN,,0.00,0.0,WeatherDisplay:10.37,2013-11-21 16:54:00,
2013-11-21 18:59:00,63.1,57.2,29.73,SSE,158,8.9,8.9,81,0.00,BKN,,0.00,0.0,WeatherDisplay:10.37,2013-11-21 16:59:00,
2013-11-21 19:04:00,63.1,57.6,29.72,South,180,10.4,10.4,82,0.00,BKN,,0.00,0.0,WeatherDisplay:10.37,2013-11-21 17:04:00,
2013-11-21 19:09:00,62.8,57.2,29.72,South,180,11.5,11.5,82,0.00,BKN,,0.00,0.0,WeatherDisplay:10.37,2013-11-21 17:09:00,
2013-11-21 19:14:00,62.8,57.2,29.72,SSE,158,13.8,13.8,82,0.00,BKN,,0.00,0.0,WeatherDisplay:10.37,2013-11-21 17:14:00,
2013-11-21 19:19:00,62.6,57.0,29.72,SW,225,18.4,18.4,82,0.00,BKN,,0.00,0.0,WeatherDisplay:10.37,2013-11-21 17:19:00,
2013-11-21 19:24:00,61.3,54.4,29.73,South,180,5.6,5.6,78,0.00,BKN,,0.00,0.0,WeatherDisplay:10.37,2013-11-21 17:24:00,
2013-11-21 19:29:00,59.7,52.8,29.72,WSW,248,5.8,5.8,78,0.00,BKN,,0.01,0.0,WeatherDisplay:10.37,2013-11-21 17:29:00,
2013-11-21 19:34:00,58.8,53.0,29.73,SSW,202,1.8,1.8,81,0.01,RA,,0.01,0.0,WeatherDisplay:10.37,2013-11-21 17:34:00,
2013-11-21 19:39:00,58.3,53.1,29.72,East,90,2.3,0.0,83,0.03,RA,,0.03,0.0,WeatherDisplay:10.37,2013-11-21 17:39:00,
2013-11-21 19:44:00,58.3,53.5,29.73,SE,135,0.0,0.0,84,0.04,RA,,0.04,0.0,WeatherDisplay:10.37,2013-11-21 17:44:00,
2013-11-21 19:49:00,58.1,53.6,29.73,SSE,158,4.0,4.0,85,0.04,-RA,,0.06,0.0,WeatherDisplay:10.37,2013-11-21 17:49:00,
2013-11-21 19:54:00,57.9,53.4,29.74,WSW,248,1.2,1.2,85,0.10,-RA,,0.10,0.0,WeatherDisplay:10.37,2013-11-21 17:54:00,
2013-11-21 19:59:00,58.1,53.6,29.74,South,180,2.3,2.3,85,0.11,-RA,,0.12,0.0,WeatherDisplay:10.37,2013-11-21 17:59:00,
2013-11-21 20:04:00,58.1,53.6,29.73,SSE,158,0.0,0.0,85,0.12,-RA,,0.12,0.0,WeatherDisplay:10.37,2013-11-21 18:04:00,
2013-11-21 20:09:00,58.1,53.6,29.74,SSE,158,0.0,0.0,85,0.12,-RA,,0.12,0.0,WeatherDisplay:10.37,2013-11-21 18:09:00,
2013-11-21 20:14:00,58.1,53.6,29.74,SSE,159,0.0,0.0,85,0.12,-RA,,0.12,0.0,WeatherDisplay:10.37,2013-11-21 18:14:00,
2013-11-21 20:19:00,58.1,53.6,29.74,SSE,159,0.0,0.0,85,0.12,-RA,,0.12,0.0,WeatherDisplay:10.37,2013-11-21 18:19:00,
2013-11-21 20:24:00,58.1,53.6,29.74,SSE,159,0.0,0.0,85,0.12,-RA,,0.12,0.0,WeatherDisplay:10.37,2013-11-21 18:24:00,
2013-11-21 20:29:00,58.1,53.6,29.74,SSE,159,0.0,0.0,85,0.12,-RA,,0.12,0.0,WeatherDisplay:10.37,2013-11-21 18:29:00,
2013-11-21 20:34:00,58.1,53.6,29.74,SSE,159,0.0,0.0,85,0.11,-RA,,0.12,0.0,WeatherDisplay:10.37,2013-11-21 18:34:00,
2013-11-21 20:39:00,58.1,53.6,29.74,SSE,159,0.0,0.0,85,0.08,-RA,,0.12,0.0,WeatherDisplay:10.37,2013-11-21 18:39:00,
2013-11-21 20:44:00,57.6,54.3,29.74,SE,135,0.0,0.0,89,0.08,-RA,,0.12,0.0,WeatherDisplay:10.37,2013-11-21 18:44:00,
2013-11-21 20:49:00,57.6,54.3,29.75,SSW,202,0.0,0.0,89,0.27,-RA,,0.31,0.0,WeatherDisplay:10.37,2013-11-21 18:49:00,
2013-11-21 20:54:00,57.6,54.3,29.74,SSW,202,0.0,0.0,89,0.21,-RA,,0.31,0.0,WeatherDisplay:10.37,2013-11-21 18:54:00,
2013-11-21 20:59:00,57.6,54.3,29.75,SSW,202,0.0,0.0,89,0.24,-RA,,0.35,0.0,WeatherDisplay:10.37,2013-11-21 18:59:00,
2013-11-21 21:04:00,57.6,54.3,29.75,SSW,204,0.0,0.0,89,0.23,RA,,0.35,0.0,WeatherDisplay:10.37,2013-11-21 19:04:00,
2013-11-21 21:09:00,57.6,54.3,29.75,SSW,204,0.0,0.0,89,0.23,RA,,0.35,0.0,WeatherDisplay:10.37,2013-11-21 19:09:00,
2013-11-21 21:14:00,57.6,54.3,29.74,SSW,204,0.0,0.0,89,0.23,RA,,0.35,0.0,WeatherDisplay:10.37,2013-11-21 19:14:00,
2013-11-21 21:19:00,57.6,54.3,29.73,SSW,204,0.0,0.0,89,0.23,RA,,0.35,0.0,WeatherDisplay:10.37,2013-11-21 19:19:00,
2013-11-21 21:24:00,57.6,54.3,29.74,SSW,204,0.0,0.0,89,0.23,RA,,0.35,0.0,WeatherDisplay:10.37,2013-11-21 19:24:00,
2013-11-21 21:29:00,57.6,54.3,29.73,SSW,204,0.0,0.0,89,0.23,OVC,,0.35,0.0,WeatherDisplay:10.37,2013-11-21 19:29:00,
2013-11-21 21:34:00,57.6,54.3,29.73,SSW,204,0.0,0.0,89,0.23,OVC,,0.35,0.0,WeatherDisplay:10.37,2013-11-21 19:34:00,
2013-11-21 21:39:00,57.6,54.3,29.73,SSW,204,0.0,0.0,89,0.23,OVC,,0.35,0.0,WeatherDisplay:10.37,2013-11-21 19:39:00,
2013-11-21 21:44:00,57.6,54.3,29.73,SSW,204,0.0,0.0,89,0.23,OVC,,0.35,0.0,WeatherDisplay:10.37,2013-11-21 19:44:00,
2013-11-21 21:49:00,57.6,54.3,29.74,SSW,204,0.0,0.0,89,0.04,OVC,,0.35,0.0,WeatherDisplay:10.37,2013-11-21 19:49:00,
2013-11-21 21:54:00,57.6,54.3,29.74,SSW,204,0.0,0.0,89,0.04,OVC,,0.35,0.0,WeatherDisplay:10.37,2013-11-21 19:54:00,
2013-11-21 21:59:00,57.6,54.3,29.74,SSW,204,0.0,0.0,89,0.00,OVC,,0.35,0.0,WeatherDisplay:10.37,2013-11-21 19:59:00,
2013-11-21 22:04:00,57.6,54.3,29.74,SSW,204,0.0,0.0,89,0.00,OVC,,0.35,0.0,WeatherDisplay:10.37,2013-11-21 20:04:00,
2013-11-21 22:09:00,57.6,54.3,29.74,SSW,204,0.0,0.0,89,0.00,OVC,,0.35,0.0,WeatherDisplay:10.37,2013-11-21 20:09:00,
2013-11-21 22:14:00,57.6,54.3,29.74,SSW,204,0.0,0.0,89,0.00,OVC,,0.35,0.0,WeatherDisplay:10.37,2013-11-21 20:14:00,
2013-11-21 22:19:00,57.6,54.3,29.74,SSW,204,0.0,0.0,89,0.00,OVC,,0.35,0.0,WeatherDisplay:10.37,2013-11-21 20:19:00,
2013-11-21 22:24:00,56.5,53.3,29.74,SSW,204,0.0,0.0,89,0.00,OVC,,0.35,0.0,WeatherDisplay:10.37,2013-11-21 20:24:00,
2013-11-21 22:29:00,56.5,53.3,29.74,SSW,204,0.0,0.0,89,0.00,OVC,,0.35,0.0,WeatherDisplay:10.37,2013-11-21 20:29:00,
2013-11-21 22:34:00,56.5,53.3,29.74,SSW,204,0.0,0.0,89,0.00,OVC,,0.35,0.0,WeatherDisplay:10.37,2013-11-21 20:34:00,
2013-11-21 22:39:00,56.5,53.3,29.74,SSW,204,0.0,0.0,89,0.00,OVC,,0.35,0.0,WeatherDisplay:10.37,2013-11-21 20:39:00,
2013-11-21 22:44:00,56.5,53.3,29.74,SSW,204,0.0,0.0,89,0.00,OVC,,0.35,0.0,WeatherDisplay:10.37,2013-11-21 20:44:00,
2013-11-21 22:49:00,56.5,53.3,29.73,SSW,204,0.0,0.0,89,0.00,OVC,,0.35,0.0,WeatherDisplay:10.37,2013-11-21 20:49:00,
2013-11-21 22:54:00,56.5,53.3,29.73,SSW,204,0.0,0.0,89,0.00,OVC,,0.35,0.0,WeatherDisplay:10.37,2013-11-21 20:54:00,
2013-11-21 22:59:00,56.5,53.3,29.73,SSW,204,0.0,0.0,89,0.00,OVC,,0.35,0.0,WeatherDisplay:10.37,2013-11-21 20:59:00,
2013-11-21 23:04:00,56.5,53.3,29.73,SSW,204,0.0,0.0,89,0.00,OVC,,0.35,0.0,WeatherDisplay:10.37,2013-11-21 21:04:00,
2013-11-21 23:09:00,56.5,53.3,29.74,SSW,204,0.0,0.0,89,0.00,OVC,,0.35,0.0,WeatherDisplay:10.37,2013-11-21 21:09:00,
2013-11-21 23:14:00,56.5,53.3,29.74,SSW,204,0.0,0.0,89,0.00,OVC,,0.35,0.0,WeatherDisplay:10.37,2013-11-21 21:14:00,
2013-11-21 23:19:00,56.5,53.3,29.74,SSW,204,0.0,0.0,89,0.00,OVC,,0.35,0.0,WeatherDisplay:10.37,2013-11-21 21:19:00,
2013-11-21 23:24:00,56.5,53.3,29.73,SSW,204,0.0,0.0,89,0.00,OVC,,0.35,0.0,WeatherDisplay:10.37,2013-11-21 21:24:00,
2013-11-21 23:29:00,56.5,53.3,29.74,SSW,204,0.0,0.0,89,0.00,OVC,,0.35,0.0,WeatherDisplay:10.37,2013-11-21 21:29:00,
2013-11-21 23:34:00,56.5,53.3,29.74,SSW,204,0.0,0.0,89,0.00,OVC,,0.35,0.0,WeatherDisplay:10.37,2013-11-21 21:34:00,
2013-11-21 23:39:00,56.5,53.3,29.74,SSW,204,0.0,0.0,89,0.00,OVC,,0.35,0.0,WeatherDisplay:10.37,2013-11-21 21:39:00,
2013-11-21 23:44:00,56.5,53.3,29.74,SSW,204,0.0,0.0,89,0.00,OVC,,0.35,0.0,WeatherDisplay:10.37,2013-11-21 21:44:00,
2013-11-21 23:49:00,56.5,53.3,29.74,SSW,204,0.0,0.0,89,0.00,OVC,,0.35,0.0,WeatherDisplay:10.37,2013-11-21 21:49:00,
2013-11-21 23:54:00,56.5,53.3,29.74,SSW,204,0.0,0.0,89,0.00,OVC,,0.35,0.0,WeatherDisplay:10.37,2013-11-21 21:54:00,
2013-11-21 23:59:00,56.5,53.3,29.74,SSW,204,0.0,0.0,89,0.00,OVC,,0.35,0.0,WeatherDisplay:10.37,2013-11-21 21:59:00,